sensor_id;sensor_type;location;lat;lon;timestamp;temperature;humidity
33903;DHT22;20194;50.950;5.346;2023-12-07T00:02:19;2.90;99.90
33903;DHT22;20194;50.950;5.346;2023-12-07T00:04:48;2.70;99.90
33903;DHT22;20194;50.950;5.346;2023-12-07T00:07:14;3.00;99.90
33903;DHT22;20194;50.950;5.346;2023-12-07T00:09:40;3.00;99.90
33903;DHT22;20194;50.950;5.346;2023-12-07T00:12:06;2.90;99.90
33903;DHT22;20194;50.950;5.346;2023-12-07T00:14:32;2.90;99.90
33903;DHT22;20194;50.950;5.346;2023-12-07T00:16:58;2.80;99.90
33903;DHT22;20194;50.950;5.346;2023-12-07T00:19:24;2.80;99.90
33903;DHT22;20194;50.950;5.346;2023-12-07T00:21:49;2.90;99.90
33903;DHT22;20194;50.950;5.346;2023-12-07T00:24:15;2.60;99.90
33903;DHT22;20194;50.950;5.346;2023-12-07T00:26:41;2.60;99.90
33903;DHT22;20194;50.950;5.346;2023-12-07T00:29:06;2.40;99.90
33903;DHT22;20194;50.950;5.346;2023-12-07T00:31:32;2.50;99.90
33903;DHT22;20194;50.950;5.346;2023-12-07T00:33:57;2.40;99.90
33903;DHT22;20194;50.950;5.346;2023-12-07T00:36:23;2.40;99.90
33903;DHT22;20194;50.950;5.346;2023-12-07T00:38:49;2.40;99.90
33903;DHT22;20194;50.950;5.346;2023-12-07T00:41:15;2.50;99.90
33903;DHT22;20194;50.950;5.346;2023-12-07T00:43:41;2.50;99.90
33903;DHT22;20194;50.950;5.346;2023-12-07T00:46:08;2.50;99.90
33903;DHT22;20194;50.950;5.346;2023-12-07T00:48:34;2.50;99.90
33903;DHT22;20194;50.950;5.346;2023-12-07T00:51:00;2.50;99.90
33903;DHT22;20194;50.950;5.346;2023-12-07T00:53:25;2.50;99.90
33903;DHT22;20194;50.950;5.346;2023-12-07T00:55:51;2.60;99.90
33903;DHT22;20194;50.950;5.346;2023-12-07T00:58:17;2.60;99.90
33903;DHT22;20194;50.950;5.346;2023-12-07T01:00:42;2.50;99.90
33903;DHT22;20194;50.950;5.346;2023-12-07T01:03:09;2.60;99.90
33903;DHT22;20194;50.950;5.346;2023-12-07T01:05:35;2.60;99.90
33903;DHT22;20194;50.950;5.346;2023-12-07T01:08:01;2.80;99.90
33903;DHT22;20194;50.950;5.346;2023-12-07T01:10:27;2.70;99.90
33903;DHT22;20194;50.950;5.346;2023-12-07T01:12:52;2.70;99.90
33903;DHT22;20194;50.950;5.346;2023-12-07T01:15:18;2.80;99.90
33903;DHT22;20194;50.950;5.346;2023-12-07T01:17:44;2.90;99.90
33903;DHT22;20194;50.950;5.346;2023-12-07T01:20:10;3.00;99.90
33903;DHT22;20194;50.950;5.346;2023-12-07T01:22:41;2.90;99.90
33903;DHT22;20194;50.950;5.346;2023-12-07T01:25:08;2.90;99.90
33903;DHT22;20194;50.950;5.346;2023-12-07T01:27:34;2.90;99.90
33903;DHT22;20194;50.950;5.346;2023-12-07T01:30:00;2.90;99.90
33903;DHT22;20194;50.950;5.346;2023-12-07T01:32:25;2.90;99.90
33903;DHT22;20194;50.950;5.346;2023-12-07T01:34:51;3.00;99.90
33903;DHT22;20194;50.950;5.346;2023-12-07T01:37:17;3.00;99.90
33903;DHT22;20194;50.950;5.346;2023-12-07T01:39:42;3.20;99.90
33903;DHT22;20194;50.950;5.346;2023-12-07T01:42:09;3.10;99.90
33903;DHT22;20194;50.950;5.346;2023-12-07T01:44:37;2.90;99.90
33903;DHT22;20194;50.950;5.346;2023-12-07T01:47:04;2.90;99.90
33903;DHT22;20194;50.950;5.346;2023-12-07T01:49:30;2.90;99.90
33903;DHT22;20194;50.950;5.346;2023-12-07T01:51:56;2.80;99.90
33903;DHT22;20194;50.950;5.346;2023-12-07T01:54:22;2.90;99.90
33903;DHT22;20194;50.950;5.346;2023-12-07T01:56:50;2.90;99.90
33903;DHT22;20194;50.950;5.346;2023-12-07T01:59:17;3.00;99.90
33903;DHT22;20194;50.950;5.346;2023-12-07T02:01:43;3.00;99.90
33903;DHT22;20194;50.950;5.346;2023-12-07T02:04:10;3.00;99.90
33903;DHT22;20194;50.950;5.346;2023-12-07T02:06:39;2.90;99.90
33903;DHT22;20194;50.950;5.346;2023-12-07T02:09:07;2.80;99.90
33903;DHT22;20194;50.950;5.346;2023-12-07T02:11:35;2.80;99.90
33903;DHT22;20194;50.950;5.346;2023-12-07T02:14:01;2.70;99.90
33903;DHT22;20194;50.950;5.346;2023-12-07T02:16:48;2.90;99.90
33903;DHT22;20194;50.950;5.346;2023-12-07T02:22:09;2.90;99.90
33903;DHT22;20194;50.950;5.346;2023-12-07T02:24:37;2.80;99.90
33903;DHT22;20194;50.950;5.346;2023-12-07T02:27:08;2.90;99.90
33903;DHT22;20194;50.950;5.346;2023-12-07T02:29:33;2.80;99.90
33903;DHT22;20194;50.950;5.346;2023-12-07T02:31:59;2.70;99.90
33903;DHT22;20194;50.950;5.346;2023-12-07T02:34:25;2.80;99.90
33903;DHT22;20194;50.950;5.346;2023-12-07T02:36:53;2.90;99.90
33903;DHT22;20194;50.950;5.346;2023-12-07T02:39:24;2.90;99.90
33903;DHT22;20194;50.950;5.346;2023-12-07T02:41:52;3.10;99.90
33903;DHT22;20194;50.950;5.346;2023-12-07T02:44:19;2.90;99.90
33903;DHT22;20194;50.950;5.346;2023-12-07T02:46:45;2.80;99.90
33903;DHT22;20194;50.950;5.346;2023-12-07T02:49:11;2.80;99.90
33903;DHT22;20194;50.950;5.346;2023-12-07T02:51:36;2.80;99.90
33903;DHT22;20194;50.950;5.346;2023-12-07T02:54:02;2.80;99.90
33903;DHT22;20194;50.950;5.346;2023-12-07T02:56:28;2.90;99.90
33903;DHT22;20194;50.950;5.346;2023-12-07T02:58:54;2.80;99.90
33903;DHT22;20194;50.950;5.346;2023-12-07T03:01:19;2.90;99.90
33903;DHT22;20194;50.950;5.346;2023-12-07T03:03:45;2.90;99.90
33903;DHT22;20194;50.950;5.346;2023-12-07T03:06:11;2.90;99.90
33903;DHT22;20194;50.950;5.346;2023-12-07T03:08:36;3.10;99.90
33903;DHT22;20194;50.950;5.346;2023-12-07T03:11:02;3.00;99.90
33903;DHT22;20194;50.950;5.346;2023-12-07T03:13:28;3.00;99.90
33903;DHT22;20194;50.950;5.346;2023-12-07T03:15:53;2.90;99.90
33903;DHT22;20194;50.950;5.346;2023-12-07T03:18:20;2.80;99.90
33903;DHT22;20194;50.950;5.346;2023-12-07T03:20:45;2.90;99.90
33903;DHT22;20194;50.950;5.346;2023-12-07T03:23:11;2.90;99.90
33903;DHT22;20194;50.950;5.346;2023-12-07T03:25:38;3.00;99.90
33903;DHT22;20194;50.950;5.346;2023-12-07T03:28:03;2.90;99.90
33903;DHT22;20194;50.950;5.346;2023-12-07T03:30:29;2.90;99.90
33903;DHT22;20194;50.950;5.346;2023-12-07T03:32:55;3.10;99.90
33903;DHT22;20194;50.950;5.346;2023-12-07T03:35:20;3.10;99.90
33903;DHT22;20194;50.950;5.346;2023-12-07T03:37:46;3.00;99.90
33903;DHT22;20194;50.950;5.346;2023-12-07T03:40:12;3.00;99.90
33903;DHT22;20194;50.950;5.346;2023-12-07T03:42:38;3.00;99.90
33903;DHT22;20194;50.950;5.346;2023-12-07T03:45:04;3.00;99.90
33903;DHT22;20194;50.950;5.346;2023-12-07T03:47:31;3.00;99.90
33903;DHT22;20194;50.950;5.346;2023-12-07T03:49:56;2.80;99.90
33903;DHT22;20194;50.950;5.346;2023-12-07T03:52:22;2.80;99.90
33903;DHT22;20194;50.950;5.346;2023-12-07T03:54:48;2.90;99.90
33903;DHT22;20194;50.950;5.346;2023-12-07T03:57:14;2.80;99.90
33903;DHT22;20194;50.950;5.346;2023-12-07T03:59:39;2.80;99.90
33903;DHT22;20194;50.950;5.346;2023-12-07T04:02:05;3.00;99.90
33903;DHT22;20194;50.950;5.346;2023-12-07T04:04:33;3.10;99.90
33903;DHT22;20194;50.950;5.346;2023-12-07T04:06:59;3.10;99.90
33903;DHT22;20194;50.950;5.346;2023-12-07T04:09:25;3.00;99.90
33903;DHT22;20194;50.950;5.346;2023-12-07T04:11:50;2.90;99.90
33903;DHT22;20194;50.950;5.346;2023-12-07T04:14:16;3.00;99.90
33903;DHT22;20194;50.950;5.346;2023-12-07T04:16:42;3.10;99.90
33903;DHT22;20194;50.950;5.346;2023-12-07T04:19:07;3.20;99.90
33903;DHT22;20194;50.950;5.346;2023-12-07T04:21:33;3.30;99.90
33903;DHT22;20194;50.950;5.346;2023-12-07T04:23:59;3.40;99.90
33903;DHT22;20194;50.950;5.346;2023-12-07T04:26:24;3.40;99.90
33903;DHT22;20194;50.950;5.346;2023-12-07T04:28:50;3.30;99.90
33903;DHT22;20194;50.950;5.346;2023-12-07T04:31:16;3.10;99.90
33903;DHT22;20194;50.950;5.346;2023-12-07T04:33:41;3.20;99.90
33903;DHT22;20194;50.950;5.346;2023-12-07T04:36:07;3.10;99.90
33903;DHT22;20194;50.950;5.346;2023-12-07T04:38:34;3.00;99.90
33903;DHT22;20194;50.950;5.346;2023-12-07T04:40:59;3.00;99.90
33903;DHT22;20194;50.950;5.346;2023-12-07T04:43:25;2.90;99.90
33903;DHT22;20194;50.950;5.346;2023-12-07T04:45:51;3.10;99.90
33903;DHT22;20194;50.950;5.346;2023-12-07T04:48:17;3.10;99.90
33903;DHT22;20194;50.950;5.346;2023-12-07T04:50:43;3.10;99.90
33903;DHT22;20194;50.950;5.346;2023-12-07T04:53:09;3.10;99.90
33903;DHT22;20194;50.950;5.346;2023-12-07T04:55:35;3.10;99.90
33903;DHT22;20194;50.950;5.346;2023-12-07T04:58:01;3.10;99.90
33903;DHT22;20194;50.950;5.346;2023-12-07T05:00:26;3.20;99.90
33903;DHT22;20194;50.950;5.346;2023-12-07T05:02:53;3.10;99.90
33903;DHT22;20194;50.950;5.346;2023-12-07T05:05:18;3.10;99.90
33903;DHT22;20194;50.950;5.346;2023-12-07T05:07:44;3.00;99.90
33903;DHT22;20194;50.950;5.346;2023-12-07T05:10:10;3.00;99.90
33903;DHT22;20194;50.950;5.346;2023-12-07T05:12:35;2.90;99.90
33903;DHT22;20194;50.950;5.346;2023-12-07T05:15:01;2.90;99.90
33903;DHT22;20194;50.950;5.346;2023-12-07T05:17:29;3.00;99.90
33903;DHT22;20194;50.950;5.346;2023-12-07T05:19:55;3.00;99.90
33903;DHT22;20194;50.950;5.346;2023-12-07T05:22:21;2.90;99.90
33903;DHT22;20194;50.950;5.346;2023-12-07T05:24:47;2.90;99.90
33903;DHT22;20194;50.950;5.346;2023-12-07T05:27:14;3.00;99.90
33903;DHT22;20194;50.950;5.346;2023-12-07T05:29:40;3.00;99.90
33903;DHT22;20194;50.950;5.346;2023-12-07T05:32:06;3.00;99.90
33903;DHT22;20194;50.950;5.346;2023-12-07T05:34:33;2.90;99.90
33903;DHT22;20194;50.950;5.346;2023-12-07T05:37:00;3.00;99.90
33903;DHT22;20194;50.950;5.346;2023-12-07T05:39:26;3.10;99.90
33903;DHT22;20194;50.950;5.346;2023-12-07T05:41:52;3.10;99.90
33903;DHT22;20194;50.950;5.346;2023-12-07T05:44:18;3.10;99.90
33903;DHT22;20194;50.950;5.346;2023-12-07T05:46:47;3.20;99.90
33903;DHT22;20194;50.950;5.346;2023-12-07T05:49:12;3.10;99.90
33903;DHT22;20194;50.950;5.346;2023-12-07T05:51:38;3.10;99.90
33903;DHT22;20194;50.950;5.346;2023-12-07T05:54:04;3.20;99.90
33903;DHT22;20194;50.950;5.346;2023-12-07T05:56:31;3.10;99.90
33903;DHT22;20194;50.950;5.346;2023-12-07T05:58:57;3.20;99.90
33903;DHT22;20194;50.950;5.346;2023-12-07T06:01:23;3.30;99.90
33903;DHT22;20194;50.950;5.346;2023-12-07T06:03:50;3.20;99.90
33903;DHT22;20194;50.950;5.346;2023-12-07T06:06:16;3.30;99.90
33903;DHT22;20194;50.950;5.346;2023-12-07T06:08:42;3.20;99.90
33903;DHT22;20194;50.950;5.346;2023-12-07T06:11:07;3.30;99.90
33903;DHT22;20194;50.950;5.346;2023-12-07T06:13:33;3.30;99.90
33903;DHT22;20194;50.950;5.346;2023-12-07T06:15:59;3.40;99.90
33903;DHT22;20194;50.950;5.346;2023-12-07T06:18:26;3.40;99.90
33903;DHT22;20194;50.950;5.346;2023-12-07T06:20:52;3.30;99.90
33903;DHT22;20194;50.950;5.346;2023-12-07T06:23:17;3.30;99.90
33903;DHT22;20194;50.950;5.346;2023-12-07T06:25:43;3.30;99.90
33903;DHT22;20194;50.950;5.346;2023-12-07T06:28:09;3.30;99.90
33903;DHT22;20194;50.950;5.346;2023-12-07T06:30:35;3.20;99.90
33903;DHT22;20194;50.950;5.346;2023-12-07T06:33:00;3.10;99.90
33903;DHT22;20194;50.950;5.346;2023-12-07T06:35:26;3.10;99.90
33903;DHT22;20194;50.950;5.346;2023-12-07T06:37:52;3.10;99.90
33903;DHT22;20194;50.950;5.346;2023-12-07T06:40:18;3.20;99.90
33903;DHT22;20194;50.950;5.346;2023-12-07T06:42:45;3.10;99.90
33903;DHT22;20194;50.950;5.346;2023-12-07T06:45:11;3.10;99.90
33903;DHT22;20194;50.950;5.346;2023-12-07T06:47:40;3.20;99.90
33903;DHT22;20194;50.950;5.346;2023-12-07T06:50:08;3.30;99.90
33903;DHT22;20194;50.950;5.346;2023-12-07T06:52:35;3.30;99.90
33903;DHT22;20194;50.950;5.346;2023-12-07T06:55:01;3.40;99.90
33903;DHT22;20194;50.950;5.346;2023-12-07T06:57:27;3.40;99.90
33903;DHT22;20194;50.950;5.346;2023-12-07T06:59:53;3.40;99.90
33903;DHT22;20194;50.950;5.346;2023-12-07T07:02:19;3.40;99.90
33903;DHT22;20194;50.950;5.346;2023-12-07T07:04:44;3.40;99.90
33903;DHT22;20194;50.950;5.346;2023-12-07T07:07:10;3.40;99.90
33903;DHT22;20194;50.950;5.346;2023-12-07T07:09:36;3.40;99.90
33903;DHT22;20194;50.950;5.346;2023-12-07T07:12:01;3.30;99.90
33903;DHT22;20194;50.950;5.346;2023-12-07T07:14:27;3.30;99.90
33903;DHT22;20194;50.950;5.346;2023-12-07T07:16:53;3.50;99.90
33903;DHT22;20194;50.950;5.346;2023-12-07T07:19:19;3.50;99.90
33903;DHT22;20194;50.950;5.346;2023-12-07T07:21:45;3.50;99.90
33903;DHT22;20194;50.950;5.346;2023-12-07T07:24:11;3.60;99.90
33903;DHT22;20194;50.950;5.346;2023-12-07T07:26:38;3.80;99.90
33903;DHT22;20194;50.950;5.346;2023-12-07T07:29:04;4.00;99.90
33903;DHT22;20194;50.950;5.346;2023-12-07T07:31:30;3.80;98.60
33903;DHT22;20194;50.950;5.346;2023-12-07T07:33:56;3.80;99.30
33903;DHT22;20194;50.950;5.346;2023-12-07T07:36:21;4.00;99.20
33903;DHT22;20194;50.950;5.346;2023-12-07T07:38:47;4.10;98.20
33903;DHT22;20194;50.950;5.346;2023-12-07T07:41:14;4.10;97.80
33903;DHT22;20194;50.950;5.346;2023-12-07T07:43:39;4.30;97.90
33903;DHT22;20194;50.950;5.346;2023-12-07T07:46:06;4.50;97.50
33903;DHT22;20194;50.950;5.346;2023-12-07T07:48:31;4.40;95.80
33903;DHT22;20194;50.950;5.346;2023-12-07T07:50:57;4.40;96.30
33903;DHT22;20194;50.950;5.346;2023-12-07T07:53:24;4.40;96.00
33903;DHT22;20194;50.950;5.346;2023-12-07T07:55:50;4.40;96.00
33903;DHT22;20194;50.950;5.346;2023-12-07T07:58:16;4.40;95.90
33903;DHT22;20194;50.950;5.346;2023-12-07T08:00:42;4.30;96.00
33903;DHT22;20194;50.950;5.346;2023-12-07T08:03:08;4.20;96.20
33903;DHT22;20194;50.950;5.346;2023-12-07T08:05:34;4.10;96.50
33903;DHT22;20194;50.950;5.346;2023-12-07T08:08:00;4.10;96.90
33903;DHT22;20194;50.950;5.346;2023-12-07T08:10:26;4.10;96.50
33903;DHT22;20194;50.950;5.346;2023-12-07T08:12:51;4.10;96.60
33903;DHT22;20194;50.950;5.346;2023-12-07T08:15:17;4.20;96.30
33903;DHT22;20194;50.950;5.346;2023-12-07T08:17:43;4.00;96.20
33903;DHT22;20194;50.950;5.346;2023-12-07T08:20:09;3.90;96.70
33903;DHT22;20194;50.950;5.346;2023-12-07T08:22:40;4.10;97.10
33903;DHT22;20194;50.950;5.346;2023-12-07T08:25:10;4.20;96.20
33903;DHT22;20194;50.950;5.346;2023-12-07T08:27:39;4.40;96.30
33903;DHT22;20194;50.950;5.346;2023-12-07T08:30:05;4.40;95.60
33903;DHT22;20194;50.950;5.346;2023-12-07T08:32:31;4.50;95.10
33903;DHT22;20194;50.950;5.346;2023-12-07T08:34:57;4.50;94.70
33903;DHT22;20194;50.950;5.346;2023-12-07T08:37:23;4.60;94.80
33903;DHT22;20194;50.950;5.346;2023-12-07T08:39:49;4.60;94.60
33903;DHT22;20194;50.950;5.346;2023-12-07T08:42:15;4.70;94.60
33903;DHT22;20194;50.950;5.346;2023-12-07T08:44:43;4.70;94.40
33903;DHT22;20194;50.950;5.346;2023-12-07T08:47:08;4.60;93.60
33903;DHT22;20194;50.950;5.346;2023-12-07T08:49:34;4.60;94.40
33903;DHT22;20194;50.950;5.346;2023-12-07T08:52:00;4.80;94.60
33903;DHT22;20194;50.950;5.346;2023-12-07T08:54:25;4.70;93.90
33903;DHT22;20194;50.950;5.346;2023-12-07T08:56:51;4.70;94.00
33903;DHT22;20194;50.950;5.346;2023-12-07T08:59:17;4.70;94.40
33903;DHT22;20194;50.950;5.346;2023-12-07T09:01:43;4.80;94.00
33903;DHT22;20194;50.950;5.346;2023-12-07T09:04:08;4.70;93.80
33903;DHT22;20194;50.950;5.346;2023-12-07T09:06:35;4.80;93.80
33903;DHT22;20194;50.950;5.346;2023-12-07T09:09:02;4.60;94.00
33903;DHT22;20194;50.950;5.346;2023-12-07T09:11:30;4.60;94.00
33903;DHT22;20194;50.950;5.346;2023-12-07T09:13:56;4.60;94.10
33903;DHT22;20194;50.950;5.346;2023-12-07T09:16:21;4.60;94.50
33903;DHT22;20194;50.950;5.346;2023-12-07T09:18:48;4.30;94.90
33903;DHT22;20194;50.950;5.346;2023-12-07T09:21:14;4.30;95.10
33903;DHT22;20194;50.950;5.346;2023-12-07T09:23:39;4.10;95.50
33903;DHT22;20194;50.950;5.346;2023-12-07T09:26:06;4.00;95.90
33903;DHT22;20194;50.950;5.346;2023-12-07T09:28:32;4.00;96.80
33903;DHT22;20194;50.950;5.346;2023-12-07T09:31:00;4.00;96.50
33903;DHT22;20194;50.950;5.346;2023-12-07T09:33:26;4.00;96.50
33903;DHT22;20194;50.950;5.346;2023-12-07T09:35:52;3.90;97.30
33903;DHT22;20194;50.950;5.346;2023-12-07T09:38:18;4.00;97.00
33903;DHT22;20194;50.950;5.346;2023-12-07T09:40:45;4.00;97.10
33903;DHT22;20194;50.950;5.346;2023-12-07T09:43:11;4.10;97.00
33903;DHT22;20194;50.950;5.346;2023-12-07T09:45:37;4.20;96.50
33903;DHT22;20194;50.950;5.346;2023-12-07T09:48:04;4.20;96.80
33903;DHT22;20194;50.950;5.346;2023-12-07T09:50:30;4.30;96.40
33903;DHT22;20194;50.950;5.346;2023-12-07T09:52:57;4.30;96.40
33903;DHT22;20194;50.950;5.346;2023-12-07T09:55:24;4.40;96.50
33903;DHT22;20194;50.950;5.346;2023-12-07T09:57:53;4.40;96.10
33903;DHT22;20194;50.950;5.346;2023-12-07T10:00:22;4.50;95.30
33903;DHT22;20194;50.950;5.346;2023-12-07T10:02:47;4.60;95.60
33903;DHT22;20194;50.950;5.346;2023-12-07T10:05:14;4.80;95.10
33903;DHT22;20194;50.950;5.346;2023-12-07T10:07:43;5.00;94.70
33903;DHT22;20194;50.950;5.346;2023-12-07T10:10:10;5.10;93.90
33903;DHT22;20194;50.950;5.346;2023-12-07T10:13:05;5.50;94.50
33903;DHT22;20194;50.950;5.346;2023-12-07T10:15:30;5.70;92.70
33903;DHT22;20194;50.950;5.346;2023-12-07T10:17:57;5.80;92.20
33903;DHT22;20194;50.950;5.346;2023-12-07T10:20:28;6.00;90.80
33903;DHT22;20194;50.950;5.346;2023-12-07T10:23:02;6.20;89.80
33903;DHT22;20194;50.950;5.346;2023-12-07T10:25:33;6.20;88.40
33903;DHT22;20194;50.950;5.346;2023-12-07T10:28:00;5.90;88.50
33903;DHT22;20194;50.950;5.346;2023-12-07T10:30:27;5.70;88.20
33903;DHT22;20194;50.950;5.346;2023-12-07T10:32:53;5.90;90.40
33903;DHT22;20194;50.950;5.346;2023-12-07T10:35:19;6.00;90.00
33903;DHT22;20194;50.950;5.346;2023-12-07T10:37:46;6.20;90.00
33903;DHT22;20194;50.950;5.346;2023-12-07T10:40:12;6.30;88.00
33903;DHT22;20194;50.950;5.346;2023-12-07T10:42:41;6.40;85.90
33903;DHT22;20194;50.950;5.346;2023-12-07T10:45:08;6.50;85.20
33903;DHT22;20194;50.950;5.346;2023-12-07T10:47:38;6.60;85.70
33903;DHT22;20194;50.950;5.346;2023-12-07T10:50:07;6.50;83.60
33903;DHT22;20194;50.950;5.346;2023-12-07T10:52:51;6.50;83.90
33903;DHT22;20194;50.950;5.346;2023-12-07T10:55:29;6.60;84.40
33903;DHT22;20194;50.950;5.346;2023-12-07T10:57:56;6.80;84.80
33903;DHT22;20194;50.950;5.346;2023-12-07T11:00:25;6.90;81.00
33903;DHT22;20194;50.950;5.346;2023-12-07T11:02:53;6.90;79.10
33903;DHT22;20194;50.950;5.346;2023-12-07T11:05:20;6.90;79.70
33903;DHT22;20194;50.950;5.346;2023-12-07T11:10:35;7.00;79.50
33903;DHT22;20194;50.950;5.346;2023-12-07T11:13:25;6.90;79.20
33903;DHT22;20194;50.950;5.346;2023-12-07T11:15:52;6.80;79.90
33903;DHT22;20194;50.950;5.346;2023-12-07T11:18:18;6.80;81.20
33903;DHT22;20194;50.950;5.346;2023-12-07T11:20:45;6.90;81.90
33903;DHT22;20194;50.950;5.346;2023-12-07T11:23:16;6.90;76.80
33903;DHT22;20194;50.950;5.346;2023-12-07T11:25:45;6.90;77.50
33903;DHT22;20194;50.950;5.346;2023-12-07T11:28:12;6.80;80.00
33903;DHT22;20194;50.950;5.346;2023-12-07T11:30:38;6.70;78.40
33903;DHT22;20194;50.950;5.346;2023-12-07T11:33:06;6.90;79.60
33903;DHT22;20194;50.950;5.346;2023-12-07T11:35:33;6.90;76.50
33903;DHT22;20194;50.950;5.346;2023-12-07T11:38:07;7.00;75.80
33903;DHT22;20194;50.950;5.346;2023-12-07T11:40:40;7.00;75.60
33903;DHT22;20194;50.950;5.346;2023-12-07T11:43:06;7.00;77.30
33903;DHT22;20194;50.950;5.346;2023-12-07T11:45:48;6.80;76.50
33903;DHT22;20194;50.950;5.346;2023-12-07T11:48:15;6.60;75.20
33903;DHT22;20194;50.950;5.346;2023-12-07T11:51:05;6.70;78.90
33903;DHT22;20194;50.950;5.346;2023-12-07T11:53:32;6.70;78.50
33903;DHT22;20194;50.950;5.346;2023-12-07T11:55:59;6.70;77.70
33903;DHT22;20194;50.950;5.346;2023-12-07T11:58:30;6.80;76.20
33903;DHT22;20194;50.950;5.346;2023-12-07T12:00:56;6.60;75.80
33903;DHT22;20194;50.950;5.346;2023-12-07T12:03:23;6.60;78.50
33903;DHT22;20194;50.950;5.346;2023-12-07T12:05:49;6.60;78.00
33903;DHT22;20194;50.950;5.346;2023-12-07T12:08:18;6.70;79.20
33903;DHT22;20194;50.950;5.346;2023-12-07T12:10:45;6.80;76.20
33903;DHT22;20194;50.950;5.346;2023-12-07T12:13:11;6.70;73.30
33903;DHT22;20194;50.950;5.346;2023-12-07T12:15:40;6.80;76.10
33903;DHT22;20194;50.950;5.346;2023-12-07T12:18:07;6.70;77.00
33903;DHT22;20194;50.950;5.346;2023-12-07T12:20:33;6.90;78.70
33903;DHT22;20194;50.950;5.346;2023-12-07T12:23:00;6.90;77.30
33903;DHT22;20194;50.950;5.346;2023-12-07T12:25:27;6.90;74.70
33903;DHT22;20194;50.950;5.346;2023-12-07T12:28:03;6.70;74.10
33903;DHT22;20194;50.950;5.346;2023-12-07T12:30:29;6.70;75.70
33903;DHT22;20194;50.950;5.346;2023-12-07T12:32:55;6.70;76.00
33903;DHT22;20194;50.950;5.346;2023-12-07T12:35:21;6.80;74.10
33903;DHT22;20194;50.950;5.346;2023-12-07T12:37:49;6.80;76.50
33903;DHT22;20194;50.950;5.346;2023-12-07T12:40:17;6.80;71.50
33903;DHT22;20194;50.950;5.346;2023-12-07T12:42:47;6.80;71.20
33903;DHT22;20194;50.950;5.346;2023-12-07T12:45:14;6.70;67.80
33903;DHT22;20194;50.950;5.346;2023-12-07T12:47:43;6.70;70.90
33903;DHT22;20194;50.950;5.346;2023-12-07T12:50:10;6.80;73.50
33903;DHT22;20194;50.950;5.346;2023-12-07T12:52:36;6.80;71.90
33903;DHT22;20194;50.950;5.346;2023-12-07T12:55:09;6.70;69.10
33903;DHT22;20194;50.950;5.346;2023-12-07T12:57:36;6.80;69.80
33903;DHT22;20194;50.950;5.346;2023-12-07T13:00:02;6.70;72.40
33903;DHT22;20194;50.950;5.346;2023-12-07T13:02:28;6.80;70.10
33903;DHT22;20194;50.950;5.346;2023-12-07T13:04:54;6.80;69.80
33903;DHT22;20194;50.950;5.346;2023-12-07T13:07:21;6.70;69.70
33903;DHT22;20194;50.950;5.346;2023-12-07T13:09:50;6.80;71.60
33903;DHT22;20194;50.950;5.346;2023-12-07T13:12:15;6.70;70.10
33903;DHT22;20194;50.950;5.346;2023-12-07T13:14:41;6.70;71.30
33903;DHT22;20194;50.950;5.346;2023-12-07T13:17:07;6.80;70.90
33903;DHT22;20194;50.950;5.346;2023-12-07T13:19:33;6.90;68.60
33903;DHT22;20194;50.950;5.346;2023-12-07T13:22:02;6.90;68.40
33903;DHT22;20194;50.950;5.346;2023-12-07T13:24:32;6.80;61.40
33903;DHT22;20194;50.950;5.346;2023-12-07T13:26:57;6.80;68.90
33903;DHT22;20194;50.950;5.346;2023-12-07T13:29:25;6.80;68.80
33903;DHT22;20194;50.950;5.346;2023-12-07T13:31:52;6.90;70.50
33903;DHT22;20194;50.950;5.346;2023-12-07T13:34:17;6.80;63.70
33903;DHT22;20194;50.950;5.346;2023-12-07T13:36:43;6.80;63.90
33903;DHT22;20194;50.950;5.346;2023-12-07T13:39:09;6.80;64.20
33903;DHT22;20194;50.950;5.346;2023-12-07T13:41:35;6.90;62.10
33903;DHT22;20194;50.950;5.346;2023-12-07T13:44:00;6.90;61.50
33903;DHT22;20194;50.950;5.346;2023-12-07T13:46:30;6.80;63.00
33903;DHT22;20194;50.950;5.346;2023-12-07T13:48:56;6.80;65.40
33903;DHT22;20194;50.950;5.346;2023-12-07T13:51:22;6.70;59.80
33903;DHT22;20194;50.950;5.346;2023-12-07T13:53:48;6.70;62.10
33903;DHT22;20194;50.950;5.346;2023-12-07T13:56:16;6.80;63.20
33903;DHT22;20194;50.950;5.346;2023-12-07T13:58:42;6.70;60.00
33903;DHT22;20194;50.950;5.346;2023-12-07T14:01:08;6.50;60.30
33903;DHT22;20194;50.950;5.346;2023-12-07T14:03:34;6.40;64.60
33903;DHT22;20194;50.950;5.346;2023-12-07T14:06:00;6.40;65.90
33903;DHT22;20194;50.950;5.346;2023-12-07T14:08:27;6.40;68.50
33903;DHT22;20194;50.950;5.346;2023-12-07T14:10:52;6.40;70.40
33903;DHT22;20194;50.950;5.346;2023-12-07T14:13:18;6.40;69.50
33903;DHT22;20194;50.950;5.346;2023-12-07T14:15:44;6.40;69.60
33903;DHT22;20194;50.950;5.346;2023-12-07T14:18:09;6.40;72.90
33903;DHT22;20194;50.950;5.346;2023-12-07T14:20:35;6.50;69.80
33903;DHT22;20194;50.950;5.346;2023-12-07T14:23:01;6.40;69.60
33903;DHT22;20194;50.950;5.346;2023-12-07T14:25:30;6.50;69.40
33903;DHT22;20194;50.950;5.346;2023-12-07T14:27:55;6.50;68.50
33903;DHT22;20194;50.950;5.346;2023-12-07T14:30:21;6.50;71.10
33903;DHT22;20194;50.950;5.346;2023-12-07T14:32:48;6.50;64.20
33903;DHT22;20194;50.950;5.346;2023-12-07T14:35:18;6.50;64.00
33903;DHT22;20194;50.950;5.346;2023-12-07T14:37:44;6.40;64.40
33903;DHT22;20194;50.950;5.346;2023-12-07T14:40:11;6.50;69.50
33903;DHT22;20194;50.950;5.346;2023-12-07T14:42:37;6.40;64.50
33903;DHT22;20194;50.950;5.346;2023-12-07T14:45:04;6.40;64.50
33903;DHT22;20194;50.950;5.346;2023-12-07T14:47:30;6.30;63.10
33903;DHT22;20194;50.950;5.346;2023-12-07T14:49:55;6.20;65.80
33903;DHT22;20194;50.950;5.346;2023-12-07T14:52:21;6.10;66.10
33903;DHT22;20194;50.950;5.346;2023-12-07T14:54:47;6.20;67.70
33903;DHT22;20194;50.950;5.346;2023-12-07T14:57:13;6.30;68.00
33903;DHT22;20194;50.950;5.346;2023-12-07T14:59:38;6.20;63.30
33903;DHT22;20194;50.950;5.346;2023-12-07T15:02:04;6.20;65.10
33903;DHT22;20194;50.950;5.346;2023-12-07T15:04:30;6.20;63.40
33903;DHT22;20194;50.950;5.346;2023-12-07T15:06:56;6.10;64.50
33903;DHT22;20194;50.950;5.346;2023-12-07T15:09:22;6.00;61.50
33903;DHT22;20194;50.950;5.346;2023-12-07T15:11:48;6.00;64.10
33903;DHT22;20194;50.950;5.346;2023-12-07T15:14:13;6.00;64.80
33903;DHT22;20194;50.950;5.346;2023-12-07T15:16:39;6.00;63.50
33903;DHT22;20194;50.950;5.346;2023-12-07T15:19:05;6.10;65.60
33903;DHT22;20194;50.950;5.346;2023-12-07T15:21:31;6.10;63.20
33903;DHT22;20194;50.950;5.346;2023-12-07T15:23:58;6.20;62.10
33903;DHT22;20194;50.950;5.346;2023-12-07T15:26:25;6.30;65.90
33903;DHT22;20194;50.950;5.346;2023-12-07T15:28:50;6.20;60.10
33903;DHT22;20194;50.950;5.346;2023-12-07T15:31:17;6.20;62.50
33903;DHT22;20194;50.950;5.346;2023-12-07T15:33:42;6.00;64.00
33903;DHT22;20194;50.950;5.346;2023-12-07T15:36:08;5.80;63.90
33903;DHT22;20194;50.950;5.346;2023-12-07T15:38:34;5.80;66.20
33903;DHT22;20194;50.950;5.346;2023-12-07T15:41:00;5.90;66.80
33903;DHT22;20194;50.950;5.346;2023-12-07T15:43:28;5.90;66.80
33903;DHT22;20194;50.950;5.346;2023-12-07T15:45:54;6.00;65.80
33903;DHT22;20194;50.950;5.346;2023-12-07T15:48:20;6.00;62.20